Weather at Laboulaye Airport

Public forecast

Using degrees Celsius for public forecast. Weather courtesy of forecast.io.

Closest aviation weather report (METAR) to Laboulaye Airport

Closest report is Area De Material Airport, 77.4 nm (143.4 km) NW. Retrieved 2021/09/23 19:00 UTC (43 minutes ago):

SAOC 231900Z 14007KT 9999 FEW200 22/02 Q1021

Closest aviation forecast (TAF) to Laboulaye Airport

Forecast is more than 12 hours old.

Closest forecast is Area De Material Airport, 77.4 nm (143.4 km) NW. Retrieved 2021-09-11 00:15 UTC (13 days ago):

TAF SAOC 102300Z 1100/1124 02015KT CAVOK TX24/1118Z TN08/1110Z BECMG 1111/1114 05025G35KT